createdAt,value
2022-09-17T00:08:16.448Z,63.69
2022-09-17T00:18:18.296Z,64.27
2022-09-17T00:28:19.762Z,64.55
2022-09-17T00:38:21.192Z,65.06
2022-09-17T00:48:22.670Z,64.28
2022-09-17T00:58:26.537Z,64.03
2022-09-17T01:08:57.523Z,63.96
2022-09-17T01:19:05.377Z,65.59
2022-09-17T01:29:25.301Z,65.89
2022-09-17T01:39:58.105Z,65.64
2022-09-17T01:50:07.382Z,66.29
2022-09-17T02:00:13.879Z,66.79
2022-09-17T02:10:20.299Z,66.11
2022-09-17T02:30:59.374Z,64.29
2022-09-17T02:41:03.863Z,63.60
2022-09-17T02:51:15.538Z,63.28
2022-09-17T03:01:32.395Z,62.23
2022-09-17T03:11:34.018Z,61.43
2022-09-17T03:21:35.476Z,60.61
2022-09-17T03:31:36.930Z,61.02
2022-09-17T03:41:38.432Z,60.51
2022-09-17T03:51:39.829Z,60.16
2022-09-17T04:01:41.414Z,60.61
2022-09-17T04:11:42.909Z,60.40
2022-09-17T04:21:44.289Z,60.40
2022-09-17T04:31:45.838Z,60.20
2022-09-17T04:41:47.917Z,60.30
2022-09-17T04:51:49.807Z,60.98
2022-09-17T05:01:51.331Z,63.64
2022-09-17T05:11:52.844Z,63.25
2022-09-17T05:21:54.298Z,61.67
2022-09-17T05:31:55.807Z,60.60
2022-09-17T05:41:57.189Z,59.77
2022-09-17T05:51:58.623Z,59.20
2022-09-17T06:02:00.031Z,57.69
2022-09-17T06:12:02.157Z,57.21
2022-09-17T06:22:05.364Z,56.48
2022-09-17T06:32:10.906Z,56.45
2022-09-17T06:42:12.469Z,57.60
2022-09-17T06:52:13.939Z,57.49
2022-09-17T07:02:15.640Z,57.67
2022-09-17T07:12:17.158Z,57.79
2022-09-17T07:22:19.170Z,57.52
2022-09-17T07:32:20.906Z,58.35
2022-09-17T07:42:22.364Z,59.98
2022-09-17T07:52:24.672Z,61.29
2022-09-17T08:02:26.288Z,58.94
2022-09-17T08:12:28.173Z,58.51
2022-09-17T08:22:31.573Z,57.85
2022-09-17T08:32:33.464Z,57.88
2022-09-17T08:42:47.920Z,57.71
2022-09-17T08:53:24.211Z,57.68
2022-09-17T09:03:44.472Z,57.80
2022-09-17T09:14:01.220Z,56.44
2022-09-17T09:24:20.316Z,51.92
2022-09-17T09:34:23.757Z,49.95
2022-09-17T09:44:25.913Z,50.14
2022-09-17T09:54:48.478Z,51.21
2022-09-17T10:04:53.354Z,48.24
2022-09-17T10:14:56.145Z,44.77
2022-09-17T10:24:59.324Z,45.08
2022-09-17T10:35:24.292Z,47.08
2022-09-17T10:45:27.653Z,49.42
2022-09-17T10:55:37.163Z,48.55
2022-09-17T11:05:56.006Z,47.67
2022-09-17T11:15:57.446Z,43.08
2022-09-17T11:26:08.349Z,40.11
2022-09-17T11:36:24.740Z,41.17
2022-09-17T11:46:32.267Z,45.46
2022-09-17T11:56:41.430Z,49.94
2022-09-17T12:07:21.922Z,48.65
2022-09-17T12:17:44.958Z,44.46
2022-09-17T12:27:58.382Z,42.84
2022-09-17T12:38:15.028Z,44.03
2022-09-17T12:48:44.150Z,41.87
2022-09-17T12:59:07.434Z,41.18
2022-09-17T13:09:42.805Z,39.88
2022-09-17T13:19:52.861Z,39.00
2022-09-17T13:29:55.515Z,41.71
2022-09-17T13:39:59.543Z,40.76
2022-09-17T13:50:08.249Z,40.84
2022-09-17T14:00:48.718Z,41.71
2022-09-17T14:10:50.208Z,42.84
2022-09-17T14:21:14.774Z,43.78
2022-09-17T14:31:21.107Z,42.68
2022-09-17T14:41:33.050Z,43.53
2022-09-17T14:51:39.841Z,47.54
2022-09-17T15:01:47.707Z,48.62
2022-09-17T15:11:53.364Z,48.65
2022-09-17T15:21:58.160Z,47.21
2022-09-17T15:32:02.965Z,47.98
2022-09-17T15:42:04.869Z,49.50
2022-09-17T15:52:31.420Z,50.70
2022-09-17T16:02:32.928Z,51.17
2022-09-17T16:12:34.414Z,51.77
2022-09-17T16:22:35.921Z,52.74
2022-09-17T16:32:38.108Z,53.57
2022-09-17T16:42:40.139Z,53.42
2022-09-17T16:52:41.928Z,53.88
2022-09-17T17:02:44.204Z,54.35
2022-09-17T17:12:45.849Z,54.63
2022-09-17T17:22:47.479Z,54.21
2022-09-17T17:32:51.283Z,55.12
2022-09-17T17:42:52.820Z,57.24
2022-09-17T17:52:55.060Z,56.92
2022-09-17T18:02:56.564Z,58.11
2022-09-17T18:12:58.920Z,58.40
2022-09-17T18:23:00.330Z,58.31
2022-09-17T18:33:01.758Z,58.21
2022-09-17T18:43:03.160Z,59.05
2022-09-17T18:53:04.586Z,60.87
2022-09-17T19:03:06.087Z,62.15
2022-09-17T19:13:07.829Z,62.14
2022-09-17T19:23:09.404Z,63.05
2022-09-17T19:33:11.033Z,63.61
2022-09-17T19:43:12.542Z,63.58
2022-09-17T19:53:13.944Z,62.84
2022-09-17T20:03:15.469Z,63.58
2022-09-17T20:13:20.430Z,63.58
2022-09-17T20:23:21.826Z,64.72
2022-09-17T20:33:24.339Z,64.54
2022-09-17T20:43:25.904Z,65.98
2022-09-17T20:53:29.418Z,65.92
2022-09-17T21:03:31.013Z,65.51
2022-09-17T21:13:32.490Z,66.32
2022-09-17T21:23:36.438Z,65.98
2022-09-17T21:33:38.309Z,66.19
2022-09-17T21:43:41.866Z,66.44
2022-09-17T21:53:43.882Z,66.62
2022-09-17T22:03:45.810Z,66.12
2022-09-17T22:14:10.771Z,66.79
2022-09-17T22:24:13.587Z,66.93
2022-09-17T22:34:19.758Z,67.76
2022-09-17T22:44:21.274Z,68.26
2022-09-17T22:54:22.725Z,68.56
2022-09-17T23:04:24.275Z,67.60
2022-09-17T23:14:25.989Z,67.80
2022-09-17T23:24:27.404Z,66.80
2022-09-17T23:34:28.861Z,66.41
2022-09-17T23:44:30.601Z,65.70
2022-09-17T23:54:32.037Z,65.67
